Map

Track Data

SID SEASON NUMBER BASIN SUBBASIN NAME ISO_TIME NATURE LAT LON WMO_WIND WMO_PRES WMO_AGENCY TRACK_TYPE DIST2LAND LANDFALL IFLAG USA_AGENCY USA_ATCF_ID USA_LAT USA_LON USA_RECORD USA_STATUS USA_WIND USA_PRES USA_SSHS USA_R34_NE USA_R34_SE USA_R34_SW USA_R34_NW USA_R50_NE USA_R50_SE USA_R50_SW USA_R50_NW USA_R64_NE USA_R64_SE USA_R64_SW USA_R64_NW USA_POCI USA_ROCI USA_RMW USA_EYE TOKYO_LAT TOKYO_LON TOKYO_GRADE TOKYO_WIND TOKYO_PRES TOKYO_R50_DIR TOKYO_R50_LONG TOKYO_R50_SHORT TOKYO_R30_DIR TOKYO_R30_LONG TOKYO_R30_SHORT TOKYO_LAND CMA_LAT CMA_LON CMA_CAT CMA_WIND CMA_PRES HKO_LAT HKO_LON HKO_CAT HKO_WIND HKO_PRES NEWDELHI_LAT NEWDELHI_LON NEWDELHI_GRADE NEWDELHI_WIND NEWDELHI_PRES NEWDELHI_CI NEWDELHI_DP NEWDELHI_POCI REUNION_LAT REUNION_LON REUNION_TYPE REUNION_WIND REUNION_PRES REUNION_TNUM REUNION_CI REUNION_RMW REUNION_R34_NE REUNION_R34_SE REUNION_R34_SW REUNION_R34_NW REUNION_R50_NE REUNION_R50_SE REUNION_R50_SW REUNION_R50_NW REUNION_R64_NE REUNION_R64_SE REUNION_R64_SW REUNION_R64_NW BOM_LAT BOM_LON BOM_TYPE BOM_WIND BOM_PRES BOM_TNUM BOM_CI BOM_RMW BOM_R34_NE BOM_R34_SE BOM_R34_SW BOM_R34_NW BOM_R50_NE BOM_R50_SE BOM_R50_SW BOM_R50_NW BOM_R64_NE BOM_R64_SE BOM_R64_SW BOM_R64_NW BOM_ROCI BOM_POCI BOM_EYE BOM_POS_METHOD BOM_PRES_METHOD NADI_LAT NADI_LON NADI_CAT NADI_WIND NADI_PRES WELLINGTON_LAT WELLINGTON_LON WELLINGTON_WIND WELLINGTON_PRES DS824_LAT DS824_LON DS824_STAGE DS824_WIND DS824_PRES TD9636_LAT TD9636_LON TD9636_STAGE TD9636_WIND TD9636_PRES TD9635_LAT TD9635_LON TD9635_WIND TD9635_PRES TD9635_ROCI NEUMANN_LAT NEUMANN_LON NEUMANN_CLASS NEUMANN_WIND NEUMANN_PRES MLC_LAT MLC_LON MLC_CLASS MLC_WIND MLC_PRES USA_GUST BOM_GUST BOM_GUST_PER REUNION_GUST REUNION_GUST_PER USA_SEAHGT USA_SEARAD_NE USA_SEARAD_SE USA_SEARAD_SW USA_SEARAD_NW STORM_SPEED STORM_DIR
1999357S08076 2000 105 SI MM ASTRIDE 1999-12-23 06:00:00 TS -8.20000 75.5000 20 1007 reunion main 1678 1678 _____O________ -1 -8.20000 75.5000 2 20 1007 1.50000 1.50000 9 154
1999357S08076 2000 105 SI MM ASTRIDE 1999-12-23 09:00:00 TS -8.60755 75.6999 main 1713 1713 _____P________ -1 -8.60755 75.6999 2 20 1006 9 165
1999357S08076 2000 105 SI MM ASTRIDE 1999-12-23 12:00:00 TS -9.04000 75.7200 20 1005 reunion main 1755 1755 O____O______O_ jtwc_sh SH032000 -9.10000 75.6000 20 -1 -9.00000 75.8000 2 20 1005 1.50000 1.50000 -9.10000 75.6000 TC 20 9 193
1999357S08076 2000 105 SI MM ASTRIDE 1999-12-23 15:00:00 TS -9.44375 75.5126 main 1805 1805 P____P______P_ SH032000 -9.52255 75.3002 20 -1 -9.36495 75.7250 2 20 1005 -9.52255 75.3002 TC 20 9 213
1999357S08076 2000 105 SI MM ASTRIDE 1999-12-23 18:00:00 TS -9.82000 75.2000 20 1005 reunion main 1858 1858 O____O______O_ jtwc_sh SH032000 -9.90000 75.0000 20 -1 -9.70000 75.5000 2 20 1005 1.50000 1.50000 -9.90000 75.0000 TC 20 10 223
1999357S08076 2000 105 SI MM ASTRIDE 1999-12-23 21:00:00 TS -10.1358 74.8549 main 1900 1900 P____P______P_ SH032000 -10.2075 74.6999 22 -1 -9.99258 75.1650 2 20 1005 -10.2075 74.6999 TC 22 9 227
1999357S08076 2000 105 SI MM ASTRIDE 1999-12-24 00:00:00 TS -10.4333 74.5333 20 1005 reunion main 1946 1946 O____O______O_ jtwc_sh SH032000 -10.5000 74.4000 25 -1 -10.3000 74.8000 2 20 1005 1.50000 1.50000 -10.5000 74.4000 TC 25 9 221
1999357S08076 2000 105 SI MM ASTRIDE 1999-12-24 03:00:00 TS -10.7898 74.2773 main 1996 1996 P____P______P_ SH032000 -10.8424 74.1224 25 -1 -10.6848 74.5872 2 21 1004 -10.8424 74.1224 TC 25 9 217
1999357S08076 2000 105 SI MM ASTRIDE 1999-12-24 06:00:00 TS -11.1667 73.9667 23 1004 reunion main 2007 1937 O____O______O_ jtwc_sh SH032000 -11.2000 73.8000 25 -1 -11.1000 74.3000 2 23 1004 2.00000 2.00000 -11.2000 73.8000 TC 25 11 224
1999357S08076 2000 105 SI MM ASTRIDE 1999-12-24 09:00:00 TS -11.5734 73.4944 main 1937 1873 P____P______P_ SH032000 -11.5875 73.3727 25 -1 -11.5452 73.7379 2 23 1004 -11.5875 73.3727 TC 25 12 233
1999357S08076 2000 105 SI MM ASTRIDE 1999-12-24 12:00:00 TS -11.9000 72.9667 23 1004 reunion main 1873 1821 O____O______O_ jtwc_sh SH032000 -11.9000 72.9000 25 -1 -11.9000 73.1000 2 23 1004 2.00000 2.00000 -11.9000 72.9000 TC 25 11 244
1999357S08076 2000 105 SI MM ASTRIDE 1999-12-24 15:00:00 TS -12.0448 72.5048 main 1821 1778 P____P______P_ SH032000 -12.0373 72.4648 25 -1 -12.0598 72.5848 2 24 1003 -12.0373 72.4648 TC 25 9 258
1999357S08076 2000 105 SI MM ASTRIDE 1999-12-24 18:00:00 TS -12.1000 72.0333 25 1002 reunion main 1769 1717 O____O______O_ jtwc_sh SH032000 -12.1000 72.0000 25 -1 -12.1000 72.1000 2 25 1002 2.00000 2.00000 -12.1000 72.0000 TC 25 10 262
1999357S08076 2000 105 SI MM ASTRIDE 1999-12-24 21:00:00 TS -12.1792 71.4975 main 1717 1672 P____P______P_ SH032000 -12.2151 71.4426 27 -1 -12.1074 71.6074 2 25 1001 -12.2151 71.4426 TC 27 11 263
1999357S08076 2000 105 SI MM ASTRIDE 1999-12-25 00:00:00 TS -12.2333 70.9667 25 1000 reunion main 1672 1636 O____O______O_ jtwc_sh SH032000 -12.3000 70.9000 30 -1 -12.1000 71.1000 2 25 1000 2.00000 2.00000 -12.3000 70.9000 TC 30 10 266
1999357S08076 2000 105 SI MM ASTRIDE 1999-12-25 03:00:00 TS -12.2472 70.5266 main 1627 1585 P____P______P_ SH032000 -12.2997 70.4998 32 -1 -12.1423 70.5800 2 25 1000 -12.2997 70.4998 TC 32 9 268
1999357S08076 2000 105 SI MM ASTRIDE 1999-12-25 06:00:00 TS -12.2667 70.0667 25 1000 reunion main 1585 1532 O____O______O_ jtwc_sh SH032000 -12.3000 70.1000 35 0 -12.2000 70.0000 2 25 1000 2.00000 2.00000 -12.3000 70.1000 TC 35 10 266
1999357S08076 2000 105 SI MM ASTRIDE 1999-12-25 09:00:00 TS -12.3276 69.4741 main 1532 1473 P____P______P_ SH032000 -12.3700 69.5724 40 0 -12.2428 69.2775 2 27 999 -12.3700 69.5724 TC 40 12 262
1999357S08076 2000 105 SI MM ASTRIDE 1999-12-25 12:00:00 TS -12.4333 68.8667 30 998 reunion main 1473 1416 O____O______O_ jtwc_sh SH032000 -12.5000 69.0000 45 0 -12.3000 68.6000 2 30 998 2.50000 2.50000 -12.5000 69.0000 TC 45 11 256
1999357S08076 2000 105 SI MM ASTRIDE 1999-12-25 15:00:00 TS -12.5998 68.3493 main 1407 1359 P____P______P_ SH032000 -12.6999 68.4426 45 0 -12.3997 68.1625 2 32 996 -12.6999 68.4426 TC 45 10 251
1999357S08076 2000 105 SI MM ASTRIDE 1999-12-25 18:00:00 TS -12.7667 67.8667 35 995 reunion main 1359 1310 O____O______O_ jtwc_sh SH032000 -12.9000 67.9000 45 0 -12.5000 67.8000 3 35 995 2.50000 2.50000 -12.9000 67.9000 TC 45 10 254
1999357S08076 2000 105 SI MM ASTRIDE 1999-12-25 21:00:00 TS -12.8623 67.3932 main 1310 1268 P____P______P_ SH032000 -13.0223 67.3999 47 0 -12.5423 67.3798 3 37 993 -13.0223 67.3999 TC 47 10 260
1999357S08076 2000 105 SI MM ASTRIDE 1999-12-26 00:00:00 TS -12.9333 66.9000 40 992 reunion main 1268 1220 O____O______O_ jtwc_sh SH032000 -13.1000 66.9000 50 0 -12.6000 66.9000 3 40 992 3.00000 3.00000 -13.1000 66.9000 TC 50 10 262
1999357S08076 2000 105 SI MM ASTRIDE 1999-12-26 03:00:00 TS -13.0042 66.3382 main 1212 1165 P____P______P_ SH032000 -13.1424 66.3573 50 0 -12.7276 66.3000 3 40 991 -13.1424 66.3573 TC 50 11 261
1999357S08076 2000 105 SI MM ASTRIDE 1999-12-26 06:00:00 TS -13.1000 65.7667 40 990 reunion main 1165 1118 O____O______O_ jtwc_sh SH032000 -13.2000 65.8000 50 0 -12.9000 65.7000 3 40 990 3.00000 3.00000 -13.2000 65.8000 TC 50 11 258
1999357S08076 2000 105 SI MM ASTRIDE 1999-12-26 09:00:00 TS -13.2416 65.2250 main 1110 1064 P____P______P_ SH032000 -13.3200 65.2275 52 0 -13.0848 65.2199 3 42 989 -13.3200 65.2275 TC 52 11 252
1999357S08076 2000 105 SI MM ASTRIDE 1999-12-26 12:00:00 TS -13.4333 64.7333 45 988 reunion main 1056 1002 O____O______O_ jtwc_sh SH032000 -13.5000 64.7000 55 0 -13.3000 64.8000 3 45 988 3.00000 3.00000 -13.5000 64.7000 TC 55 10 243
1999357S08076 2000 105 SI MM ASTRIDE 1999-12-26 15:00:00 TS -13.6906 64.3259 main 1002 964 P____P______P_ SH032000 -13.7573 64.2850 55 0 -13.5573 64.4075 3 47 986 -13.7573 64.2850 TC 55 9 237
1999357S08076 2000 105 SI MM ASTRIDE 1999-12-26 18:00:00 TS -13.9333 63.9333 50 985 reunion main 956 911 O____O______O_ jtwc_sh SH032000 -14.0000 63.9000 55 0 -13.8000 64.0000 3 50 985 3.50000 3.50000 -14.0000 63.9000 TC 55 9 245
1999357S08076 2000 105 SI MM ASTRIDE 1999-12-26 21:00:00 TS -14.0775 63.4716 main 911 867 P____P______P_ SH032000 -14.1300 63.4574 55 0 -13.9726 63.5000 3 50 985 -14.1300 63.4574 TC 55 9 256
1999357S08076 2000 105 SI MM ASTRIDE 1999-12-27 00:00:00 TS -14.1667 63.0000 50 985 reunion main 867 840 O____O______O_ jtwc_sh SH032000 -14.2000 63.0000 55 0 -14.1000 63.0000 3 50 985 3.50000 3.50000 -14.2000 63.0000 TC 55 9 260
1999357S08076 2000 105 SI MM ASTRIDE 1999-12-27 03:00:00 TS -14.2383 62.5566 main 840 805 P____P______P_ SH032000 -14.2500 62.5424 57 0 -14.2149 62.5849 3 50 985 -14.2500 62.5424 TC 57 9 261
1999357S08076 2000 105 SI MM ASTRIDE 1999-12-27 06:00:00 TS -14.3000 62.1333 50 985 reunion main 799 772 O____O______O_ jtwc_sh SH032000 -14.3000 62.1000 60 0 -14.3000 62.2000 3 50 985 3.00000 3.50000 -14.3000 62.1000 TC 60 8 260
1999357S08076 2000 105 SI MM ASTRIDE 1999-12-27 09:00:00 TS -14.3807 61.7308 main 766 739 P____P______P_ SH032000 -14.3924 61.6850 62 0 -14.3573 61.8224 3 50 985 -14.3924 61.6850 TC 62 8 258
1999357S08076 2000 105 SI MM ASTRIDE 1999-12-27 12:00:00 TS -14.4667 61.3333 50 985 reunion main 733 712 O____O______O_ jtwc_sh SH032000 -14.5000 61.3000 65 1 -14.4000 61.4000 3 50 985 2.50000 3.50000 -14.5000 61.3000 TC 65 8 258
1999357S08076 2000 105 SI MM ASTRIDE 1999-12-27 15:00:00 TS -14.5524 60.9266 main 702 683 P____P______P_ SH032000 -14.6073 60.9575 65 1 -14.4426 60.8649 3 47 986 -14.6073 60.9575 TC 65 8 258
1999357S08076 2000 105 SI MM ASTRIDE 1999-12-27 18:00:00 TS -14.6333 60.5000 45 988 reunion main 683 655 O____O______O_ jtwc_sh SH032000 -14.7000 60.6000 65 1 -14.5000 60.3000 3 45 988 2.50000 3.00000 -14.7000 60.6000 TC 65 9 261
1999357S08076 2000 105 SI MM ASTRIDE 1999-12-27 21:00:00 TS -14.6949 60.0457 main 651 626 P____P______P_ SH032000 -14.7499 60.1724 65 1 -14.5848 59.7924 3 42 989 -14.7499 60.1724 TC 65 9 262
1999357S08076 2000 105 SI MM ASTRIDE 1999-12-28 00:00:00 TS -14.7667 59.5667 40 990 reunion main 626 600 O____O______O_ jtwc_sh SH032000 -14.8000 59.7000 65 1 -14.7000 59.3000 3 40 990 2.50000 3.00000 -14.8000 59.7000 TC 65 10 259
1999357S08076 2000 105 SI MM ASTRIDE 1999-12-28 03:00:00 TS -14.8834 59.0493 main 597 578 P____P______P_ SH032000 -14.9000 59.1926 62 0 -14.8501 58.7626 3 40 991 -14.9000 59.1926 TC 62 10 256
1999357S08076 2000 105 SI MM ASTRIDE 1999-12-28 06:00:00 TS -15.0000 58.5667 40 992 reunion main 578 561 O____O______O_ jtwc_sh SH032000 -15.0000 58.7000 60 0 -15.0000 58.3000 3 40 992 2.50000 3.00000 -15.0000 58.7000 TC 60 9 257
1999357S08076 2000 105 SI MM ASTRIDE 1999-12-28 09:00:00 TS -15.0690 58.1916 main 561 559 P____P______P_ SH032000 -15.0499 58.2774 57 0 -15.1073 58.0199 3 40 992 -15.0499 58.2774 TC 57 7 259
1999357S08076 2000 105 SI MM ASTRIDE 1999-12-28 12:00:00 TS -15.1333 57.8667 40 992 reunion main 559 548 O____O______O_ jtwc_sh SH032000 -15.1000 57.9000 55 0 -15.2000 57.8000 3 40 992 9.90000 3.00000 -15.1000 57.9000 TC 55 7 256
1999357S08076 2000 105 SI MM ASTRIDE 1999-12-28 15:00:00 TS -15.2333 57.5184 main 548 537 P____P______P_ SH032000 -15.2000 57.5275 55 0 -15.3000 57.5000 3 40 992 -15.2000 57.5275 TC 55 7 253
1999357S08076 2000 105 SI MM ASTRIDE 1999-12-28 18:00:00 TS -15.3333 57.2000 40 992 reunion main 538 527 O____O______O_ jtwc_sh SH032000 -15.3000 57.2000 55 0 -15.4000 57.2000 3 40 992 3.00000 3.00000 -15.3000 57.2000 TC 55 6 253
1999357S08076 2000 105 SI MM ASTRIDE 1999-12-28 21:00:00 TS -15.4074 56.9375 main 529 520 P____P______P_ SH032000 -15.3574 56.9349 55 0 -15.5074 56.9425 3 42 990 -15.3574 56.9349 TC 55 5 254
1999357S08076 2000 105 SI MM ASTRIDE 1999-12-29 00:00:00 TS -15.4667 56.7000 45 988 reunion main 521 521 O____O______O_ jtwc_sh SH032000 -15.4000 56.7000 55 0 -15.6000 56.7000 3 45 988 3.00000 3.00000 -15.4000 56.7000 TC 55 5 256
1999357S08076 2000 105 SI MM ASTRIDE 1999-12-29 03:00:00 TS -15.5266 56.4475 main 527 519 P____P______P_ SH032000 -15.4575 56.4500 55 0 -15.6650 56.4425 3 47 986 -15.4575 56.4500 TC 55 5 258
1999357S08076 2000 105 SI MM ASTRIDE 1999-12-29 06:00:00 TS -15.5667 56.2000 50 985 reunion main 521 521 O____O______O_ jtwc_sh SH032000 -15.5000 56.2000 55 0 -15.7000 56.2000 3 50 985 3.50000 3.50000 -15.5000 56.2000 TC 55 5 263
1999357S08076 2000 105 SI MM ASTRIDE 1999-12-29 09:00:00 TS -15.5816 55.9642 main 527 527 P____P______P_ SH032000 -15.5150 55.9500 55 0 -15.7150 55.9925 3 50 985 -15.5150 55.9500 TC 55 5 270
1999357S08076 2000 105 SI MM ASTRIDE 1999-12-29 12:00:00 TS -15.5667 55.7333 50 985 reunion main 538 536 O____O______O_ jtwc_sh SH032000 -15.5000 55.7000 55 0 -15.7000 55.8000 3 50 985 3.00000 3.50000 -15.5000 55.7000 TC 55 4 277
1999357S08076 2000 105 SI MM ASTRIDE 1999-12-29 15:00:00 TS -15.5266 55.5050 main 536 514 P____P______P_ SH032000 -15.4574 55.4575 52 0 -15.6650 55.6000 3 50 985 -15.4574 55.4575 TC 52 5 283
1999357S08076 2000 105 SI MM ASTRIDE 1999-12-29 18:00:00 TS -15.4667 55.2667 50 985 reunion main 514 482 O____O______O_ jtwc_sh SH032000 -15.4000 55.2000 50 0 -15.6000 55.4000 3 50 985 3.50000 3.50000 -15.4000 55.2000 TC 50 5 284
1999357S08076 2000 105 SI MM ASTRIDE 1999-12-29 21:00:00 TS -15.4125 55.0126 main 482 450 P____P______P_ SH032000 -15.3575 54.9075 47 0 -15.5224 55.2226 3 50 985 -15.3575 54.9075 TC 47 5 285
1999357S08076 2000 105 SI MM ASTRIDE 1999-12-30 00:00:00 TS -15.3333 54.7333 50 985 reunion main 450 429 O____O______O_ jtwc_sh SH032000 -15.3000 54.6000 45 0 -15.4000 55.0000 3 50 985 3.50000 3.50000 -15.3000 54.6000 TC 45 6 290
1999357S08076 2000 105 SI MM ASTRIDE 1999-12-30 03:00:00 TS -15.2099 54.4442 main 418 386 P____P______P_ SH032000 -15.2149 54.3075 45 0 -15.1998 54.7174 3 50 985 -15.2149 54.3075 TC 45 7 294
1999357S08076 2000 105 SI MM ASTRIDE 1999-12-30 06:00:00 TS -15.0667 54.1000 50 985 reunion main 386 344 O____O______O_ jtwc_sh SH032000 -15.1000 54.0000 45 0 -15.0000 54.3000 3 50 985 3.00000 3.50000 -15.1000 54.0000 TC 45 8 289
1999357S08076 2000 105 SI MM ASTRIDE 1999-12-30 09:00:00 TS -14.9434 53.6626 main 345 293 P____P______P_ SH032000 -14.9574 53.6650 45 0 -14.9154 53.6577 3 50 985 -14.9574 53.6650 TC 45 9 287
1999357S08076 2000 105 SI MM ASTRIDE 1999-12-30 12:00:00 TS -14.8000 53.2000 50 985 reunion main 293 256 O____O______O_ jtwc_sh SH032000 -14.8000 53.3000 45 0 -14.8000 53.0000 3 50 985 3.00000 3.50000 -14.8000 53.3000 TC 45 9 291
1999357S08076 2000 105 SI MM ASTRIDE 1999-12-30 15:00:00 TS -14.6174 52.7876 main 256 223 P____P______P_ SH032000 -14.6575 52.9076 42 0 -14.5373 52.5475 3 47 986 -14.6575 52.9076 TC 42 9 297
1999357S08076 2000 105 SI MM ASTRIDE 1999-12-30 18:00:00 TS -14.4000 52.4000 45 988 reunion main 223 196 O____O______O_ jtwc_sh SH032000 -14.5000 52.5000 40 0 -14.2000 52.2000 3 45 988 2.50000 3.00000 -14.5000 52.5000 TC 40 9 302
1999357S08076 2000 105 SI MM ASTRIDE 1999-12-30 21:00:00 TS -14.1500 52.0108 main 201 172 P____P______P_ SH032000 -14.3075 52.0775 40 0 -13.8349 51.8775 3 45 988 -14.3075 52.0775 TC 40 9 305
1999357S08076 2000 105 SI MM ASTRIDE 1999-12-31 00:00:00 TS -13.9000 51.6667 45 988 reunion main 172 140 O____O______O_ jtwc_sh SH032000 -14.1000 51.7000 40 0 -13.5000 51.6000 3 45 988 2.50000 3.00000 -14.1000 51.7000 TC 40 8 308
1999357S08076 2000 105 SI MM ASTRIDE 1999-12-31 03:00:00 TS -13.6824 51.3993 main 140 120 P____P______P_ SH032000 -13.8924 51.4276 40 0 -13.2625 51.3426 3 42 990 -13.8924 51.4276 TC 40 6 309
1999357S08076 2000 105 SI MM ASTRIDE 1999-12-31 06:00:00 TS -13.5000 51.1667 40 992 reunion main 123 97 O____O______O_ jtwc_sh SH032000 -13.7000 51.2000 40 0 -13.1000 51.1000 3 40 992 2.50000 3.00000 -13.7000 51.2000 TC 40 6 305
1999357S08076 2000 105 SI MM ASTRIDE 1999-12-31 09:00:00 TS -13.3616 50.9318 main 97 76 P____P______P_ SH032000 -13.5499 50.9651 40 0 -12.9849 50.8651 3 40 992 -13.5499 50.9651 TC 40 6 299
1999357S08076 2000 105 SI MM ASTRIDE 1999-12-31 12:00:00 TS -13.2333 50.6667 40 992 reunion main 79 54 O____O______O_ jtwc_sh SH032000 -13.4000 50.7000 40 0 -12.9000 50.6000 3 40 992 2.50000 3.00000 -13.4000 50.7000 TC 40 6 298
1999357S08076 2000 105 SI MM ASTRIDE 1999-12-31 15:00:00 TS -13.0566 50.3516 main 54 15 P____P______P_ SH032000 -13.1924 50.3875 42 0 -12.7849 50.2799 3 37 993 -13.1924 50.3875 TC 42 8 296
1999357S08076 2000 105 SI MM ASTRIDE 1999-12-31 18:00:00 TS -12.9000 49.9667 35 995 reunion main 15 0 O____O______O_ jtwc_sh SH032000 -13.0000 50.0000 45 0 -12.7000 49.9000 3 35 995 2.00000 2.50000 -13.0000 50.0000 TC 45 9 287
1999357S08076 2000 105 SI MM ASTRIDE 1999-12-31 21:00:00 TS -12.8108 49.5134 main 0 0 P____P______P_ SH032000 -12.8775 49.5300 42 0 -12.6774 49.4800 3 30 997 -12.8775 49.5300 TC 42 10 278
1999357S08076 2000 105 SI MM ASTRIDE 2000-01-01 00:00:00 TS -12.7667 49.0000 25 1000 reunion main 0 0 O____O______O_ jtwc_sh SH032000 -12.8000 49.0000 40 0 -12.7000 49.0000 2 25 1000 2.00000 2.00000 -12.8000 49.0000 TC 40 11 273
1999357S08076 2000 105 SI MM ASTRIDE 2000-01-01 03:00:00 TS -12.7476 48.4301 main 44 44 P____P______P_ SH032000 -12.7351 48.4275 37 0 -12.7726 48.4352 2 25 1000 -12.7351 48.4275 TC 37 11 272
1999357S08076 2000 105 SI MM ASTRIDE 2000-01-01 06:00:00 TS -12.7333 47.9000 25 1000 reunion main 98 98 O____O______O_ jtwc_sh SH032000 -12.7000 47.9000 35 0 -12.8000 47.9000 2 25 1000 2.00000 2.00000 -12.7000 47.9000 TC 35 9 274
1999357S08076 2000 105 SI MM ASTRIDE 2000-01-01 09:00:00 TS -12.6807 47.5150 main 114 114 P____P______P_ SH032000 -12.6923 47.5201 35 0 -12.6574 47.5048 2 25 1000 -12.6923 47.5201 TC 35 7 278
1999357S08076 2000 105 SI MM ASTRIDE 2000-01-01 12:00:00 TS -12.6333 47.2000 25 1000 reunion main 141 141 O____O______O_ jtwc_sh SH032000 -12.7000 47.2000 35 0 -12.5000 47.2000 2 25 1000 2.00000 2.00000 -12.7000 47.2000 TC 35 6 276
1999357S08076 2000 105 SI MM ASTRIDE 2000-01-01 15:00:00 TS -12.6183 46.8858 main 163 163 P____P______P_ SH032000 -12.7000 46.8500 30 -1 -12.4549 46.9575 2 27 999 -12.7000 46.8500 TC 30 6 270
1999357S08076 2000 105 SI MM ASTRIDE 2000-01-01 18:00:00 TS -12.6333 46.5667 30 998 reunion main 187 187 O____O______O_ jtwc_sh SH032000 -12.7000 46.5000 25 -1 -12.5000 46.7000 2 30 998 2.50000 2.50000 -12.7000 46.5000 TC 25 7 265
1999357S08076 2000 105 SI MM ASTRIDE 2000-01-01 21:00:00 TS -12.6708 46.2150 main 215 215 P____P______P_ SH032000 -12.6924 46.1575 25 -1 -12.6275 46.3300 2 31 997 -12.6924 46.1575 TC 25 7 262
1999357S08076 2000 105 SI MM ASTRIDE 2000-01-02 00:00:00 TS -12.7333 45.8333 33 996 reunion main 253 253 O____O______O_ jtwc_sh SH032000 -12.7000 45.8000 25 -1 -12.8000 45.9000 2 33 996 2.50000 2.50000 -12.7000 45.8000 TC 25 8 260
1999357S08076 2000 105 SI MM ASTRIDE 2000-01-02 03:00:00 TS -12.8091 45.4366 main 288 288 P____P______P_ SH032000 -12.7424 45.4225 25 -1 -12.9424 45.4649 2 34 995 -12.7424 45.4225 TC 25 8 258
1999357S08076 2000 105 SI MM ASTRIDE 2000-01-02 06:00:00 TS -12.9000 45.0000 35 995 reunion main 326 326 O____O______O_ jtwc_sh SH032000 -12.8000 45.0000 25 -1 -13.1000 45.0000 3 35 995 2.50000 2.50000 -12.8000 45.0000 TC 25 9 258
1999357S08076 2000 105 SI MM ASTRIDE 2000-01-02 09:00:00 TS -12.9997 44.5474 main 342 335 P____P______P_ SH032000 -12.8497 44.5524 25 -1 -13.2997 44.5374 3 35 995 -12.8497 44.5524 TC 25 10 258
1999357S08076 2000 105 SI MM ASTRIDE 2000-01-02 12:00:00 TS -13.1000 44.0000 35 995 reunion main 345 293 O____O______O_ jtwc_sh SH032000 -12.9000 44.0000 25 -1 -13.5000 44.0000 3 35 995 2.50000 2.50000 -12.9000 44.0000 TC 25 12 261
1999357S08076 2000 105 SI MM ASTRIDE 2000-01-02 15:00:00 TS -13.1959 43.3017 main 293 216 P____P______P_ SH032000 -12.9500 43.2950 25 -1 -13.6877 43.3152 3 35 995 -12.9500 43.2950 TC 25 14 261
1999357S08076 2000 105 SI MM ASTRIDE 2000-01-02 18:00:00 TS -13.3200 42.5400 35 995 reunion main 205 140 O____O______O_ jtwc_sh SH032000 -13.0000 42.5000 25 -1 -13.8000 42.6000 3 35 995 2.50000 2.50000 -13.0000 42.5000 TC 25 14 261
1999357S08076 2000 105 SI MM ASTRIDE 2000-01-02 21:00:00 TS -13.4151 41.8374 main 129 76 P____P______P_ SH032000 -13.0504 41.6976 25 -1 -13.7798 41.9773 3 34 995 -13.0504 41.6976 TC 25 13 262
1999357S08076 2000 105 SI MM ASTRIDE 2000-01-03 00:00:00 TS -13.5000 41.2333 33 996 reunion main 65 24 O____O______O_ jtwc_sh SH032000 -13.1000 40.9000 25 -1 -13.7000 41.4000 2 33 996 2.00000 2.50000 -13.1000 40.9000 TC 25 10 255
1999357S08076 2000 105 SI MM ASTRIDE 2000-01-03 03:00:00 TS -13.6725 40.8202 main 24 0 _____P________ SH032000 -1 -13.6725 40.8201 2 31 997 TC 9 264
1999357S08076 2000 105 SI MM ASTRIDE 2000-01-03 06:00:00 NR -13.6000 40.3000 30 998 reunion main 0 0 _____O________ -1 -13.6000 40.3000 8 30 998 9.90000 2.50000 10 285
1999357S08076 2000 105 SI MM ASTRIDE 2000-01-03 09:00:00 NR -13.4300 39.8723 main 0 0 _____P________ -1 -13.4300 39.8723 8 27 999 9 297
1999357S08076 2000 105 SI MM ASTRIDE 2000-01-03 12:00:00 NR -13.2000 39.5000 25 1000 reunion main 0 _____O________ -1 -13.2000 39.5000 8 25 1000 9.90000 9 302

About IBTrACS Database

This database is a web-friendly format of International Best Track Archive for Climate Stewardship (IBTrACS), a global best track data archive curated by NOAA dating back to 1842.

Updated: 2021-12-03